Bookmark and Share
Track history (hours):
 

Misty Dawn

More information available from US FCC via Universal Licensing System and Coast Guard Vessel Documentation Center.

Last reported at 2014-Jan-26 14:27 UTC. Time now 2014-Apr-19 02:10 UTC.
Position N 49°28' W 127°49'.
Warning: this ship's position is months out of date.

Length 22 m; draft 25.5 m.

MMSI: 367082010.

NotesDate/timePositionNaut miles runAvg speedWind from/ knotsBaromVisibWave heightAir tempDewpointWater temp
2014-Jan-26 14:27N 49°28' W 127°49'3110.0
2014-Jan-26 11:21N 49°15' W 127°06'810.2
2014-Jan-26 10:33N 49°11' W 126°55'1210.0
2014-Jan-26 09:23N 49°06' W 126°39'810.0
2014-Jan-26 08:33N 49°02' W 126°28'1010.3
2014-Jan-26 07:33N 48°57' W 126°13'1010.0
2014-Jan-26 06:33N 48°53' W 125°60'9 9.5
2014-Jan-26 05:33N 48°49' W 125°47'9 9.5
2014-Jan-26 04:33N 48°44' W 125°35'10 9.9
2014-Jan-26 03:33N 48°40' W 125°21'1110.4
2014-Jan-26 02:32N 48°35' W 125°07'24 8.0
2014-Jan-25 23:33N 48°22' W 124°37'0 0.0
2014-Jan-24 16:17N 48°22' W 124°37'26 6.8
2014-Jan-24 12:30N 48°13' W 124°01'1010.1
2014-Jan-24 11:33N 48°11' W 123°46'1010.0
2014-Jan-24 10:33N 48°10' W 123°31'1111.0
2014-Jan-24 09:33N 48°11' W 123°15'1110.5
2014-Jan-24 08:33N 48°11' W 122°59'28 9.5
2014-Jan-24 05:33N 47°51' W 122°29'9 9.2
2014-Jan-24 04:33N 47°42' W 122°25'2 2.2
2014-Jan-24 03:33N 47°40' W 122°24'1 0.7
2014-Jan-24 02:33N 47°40' W 122°23'0 0.0
2014-Jan-24 01:33N 47°40' W 122°23'0 0.0
2014-Jan-24 00:33N 47°40' W 122°23'0 0.0
2014-Jan-23 23:33N 47°40' W 122°23'0 0.0
2014-Jan-23 22:32N 47°40' W 122°23'0 0.0
2014-Jan-23 21:33N 47°40' W 122°23'0 0.0
2014-Jan-23 20:33N 47°40' W 122°23'0 0.1
2014-Jan-23 19:33N 47°40' W 122°23'1 0.6
2014-Jan-23 18:33N 47°40' W 122°23'0 0.0
2014-Jan-23 17:33N 47°40' W 122°23'0 0.0
2014-Jan-23 16:33N 47°40' W 122°23'0 0.3
2014-Jan-23 15:33N 47°40' W 122°23'0 0.3
2014-Jan-23 14:33N 47°40' W 122°23'0 0.0
2014-Jan-23 13:33N 47°40' W 122°23'0 0.0
2014-Jan-23 12:33N 47°40' W 122°23'0 0.0
2014-Jan-23 11:33N 47°40' W 122°23'0 0.0
2014-Jan-23 10:33N 47°40' W 122°23'0 0.0
2014-Jan-23 09:33N 47°40' W 122°23'0 0.0
2014-Jan-23 08:33N 47°40' W 122°23'0 0.0
2014-Jan-23 07:33N 47°40' W 122°23'0 0.0
2014-Jan-23 06:33N 47°40' W 122°23'0 0.0
2014-Jan-23 05:33N 47°40' W 122°23'0 0.0
2014-Jan-23 04:33N 47°40' W 122°23'0 0.0
2014-Jan-23 03:33N 47°40' W 122°23'0 0.0
2014-Jan-23 02:33N 47°40' W 122°23'0 0.0
2014-Jan-23 01:33N 47°40' W 122°23'0 0.0
2014-Jan-23 00:33N 47°40' W 122°23'0 0.0
2014-Jan-22 23:33N 47°40' W 122°23'0 0.0
2014-Jan-22 22:33N 47°40' W 122°23'0 0.0
2014-Jan-22 21:33N 47°40' W 122°23'0 0.0
2014-Jan-22 20:33N 47°40' W 122°23'0 0.0
2014-Jan-22 19:33N 47°40' W 122°23'0 0.0
2014-Jan-22 18:33N 47°40' W 122°23'0 0.0
2014-Jan-22 17:33N 47°40' W 122°23'0 0.0
2014-Jan-22 16:33N 47°40' W 122°23'0 0.0
2014-Jan-22 15:33N 47°40' W 122°23'0 0.0
2014-Jan-22 14:33N 47°40' W 122°23'0 0.0
2014-Jan-22 13:33N 47°40' W 122°23'0 0.0
2014-Jan-22 12:33N 47°40' W 122°23'0 0.0
2014-Jan-22 11:33N 47°40' W 122°23'0 0.0
2014-Jan-22 10:33N 47°40' W 122°23'0 0.0
2014-Jan-22 09:33N 47°40' W 122°23'0 0.0
2014-Jan-22 08:33N 47°40' W 122°23'0 0.0
2014-Jan-22 07:33N 47°40' W 122°23'0 0.0
2014-Jan-22 06:33N 47°40' W 122°23'0 0.0
2014-Jan-22 05:33N 47°40' W 122°23'0 0.0
2014-Jan-22 04:33N 47°40' W 122°23'0 0.0
2014-Jan-22 03:33N 47°40' W 122°23'0 0.0
2014-Jan-22 02:33N 47°40' W 122°23'0 0.0
2014-Jan-22 01:33N 47°40' W 122°23'0 0.0
2014-Jan-22 00:33N 47°40' W 122°23'0 0.0
2014-Jan-21 23:33N 47°40' W 122°23'0 0.0
2014-Jan-21 22:33N 47°40' W 122°23'0 0.0
2014-Jan-21 21:33N 47°40' W 122°23'0 0.0
2014-Jan-21 20:33N 47°40' W 122°23'0 0.0
2014-Jan-21 19:33N 47°40' W 122°23'0 0.0
2014-Jan-21 18:33N 47°40' W 122°23'0 0.0
2014-Jan-21 17:33N 47°40' W 122°23'0 0.0
2014-Jan-21 16:34N 47°40' W 122°23'0 0.0
2014-Jan-21 15:33N 47°40' W 122°23'0 0.0
2014-Jan-21 14:33N 47°40' W 122°23'0 0.0
2014-Jan-21 12:33N 47°40' W 122°23'0 0.0
2014-Jan-21 11:33N 47°40' W 122°23'0 0.0
2014-Jan-21 10:33N 47°40' W 122°23'0 0.0
2014-Jan-21 09:33N 47°40' W 122°23'0 0.0
2014-Jan-21 08:33N 47°40' W 122°23'0 0.0
2014-Jan-21 07:33N 47°40' W 122°23'0 0.0
2014-Jan-21 06:33N 47°40' W 122°23'0 0.0
2014-Jan-21 05:33N 47°40' W 122°23'0 0.0
2014-Jan-21 04:33N 47°40' W 122°23'0 0.0
2014-Jan-21 03:33N 47°40' W 122°23'0 0.0
2014-Jan-21 02:33N 47°40' W 122°23'0 0.0
2014-Jan-21 01:33N 47°40' W 122°23'0 0.0
2014-Jan-21 00:33N 47°40' W 122°23'0 0.0
2014-Jan-20 23:33N 47°40' W 122°23'0 0.0
2014-Jan-20 22:33N 47°40' W 122°23'0 0.0
2014-Jan-20 21:33N 47°40' W 122°23'0 0.0
2014-Jan-20 20:33N 47°40' W 122°23'0 0.0
2014-Jan-20 19:33N 47°40' W 122°23'0 0.0
2014-Jan-20 18:33N 47°40' W 122°23'0 0.0
2014-Jan-20 17:33N 47°40' W 122°23'0 0.0
2014-Jan-20 16:33N 47°40' W 122°23'0 0.0
2014-Jan-20 15:33N 47°40' W 122°23'0 0.0
2014-Jan-20 14:33N 47°40' W 122°23'0 0.0
2014-Jan-20 13:33N 47°40' W 122°23'0 0.0
2014-Jan-20 12:33N 47°40' W 122°23'0 0.0
2014-Jan-20 11:33N 47°40' W 122°23'0 0.0
2014-Jan-20 10:33N 47°40' W 122°23'0 0.0
2014-Jan-20 09:33N 47°40' W 122°23'0 0.0
2014-Jan-20 08:33N 47°40' W 122°23'0 0.0
2014-Jan-20 07:33N 47°40' W 122°23'0 0.0
2014-Jan-20 06:33N 47°40' W 122°23'0 0.0
2014-Jan-20 05:33N 47°40' W 122°23'0 0.0
2014-Jan-20 04:33N 47°40' W 122°23'0 0.0
2014-Jan-20 03:33N 47°40' W 122°23'0 0.0
2014-Jan-20 02:33N 47°40' W 122°23'0 0.0
2014-Jan-20 01:33N 47°40' W 122°23'0 0.0
2014-Jan-20 00:33N 47°40' W 122°23'0 0.0
2014-Jan-19 23:33N 47°40' W 122°23'0 0.0
2014-Jan-19 22:33N 47°40' W 122°23'0 0.0
2014-Jan-19 21:33N 47°40' W 122°23'0 0.0
2014-Jan-19 20:33N 47°40' W 122°23'0 0.0
2014-Jan-19 19:33N 47°40' W 122°23'0 0.0
2014-Jan-19 18:33N 47°40' W 122°23'0 0.0
2014-Jan-19 17:33N 47°40' W 122°23'0 0.0
2014-Jan-19 16:33N 47°40' W 122°23'0 0.0
2014-Jan-19 15:33N 47°40' W 122°23'0 0.0
2014-Jan-19 14:33N 47°40' W 122°23'0 0.0
2014-Jan-19 13:33N 47°40' W 122°23'0 0.0
2014-Jan-19 11:33N 47°40' W 122°23'0 0.0
2014-Jan-19 10:33N 47°40' W 122°23'0 0.0
2014-Jan-19 09:33N 47°40' W 122°23'0 0.0
2014-Jan-19 08:33N 47°40' W 122°23'0 0.0
2014-Jan-19 07:33N 47°40' W 122°23'0 0.0
2014-Jan-19 06:33N 47°40' W 122°23'0 0.0
2014-Jan-19 05:33N 47°40' W 122°23'0 0.0
2014-Jan-19 04:33N 47°40' W 122°23'0 0.0
2014-Jan-19 03:33N 47°40' W 122°23'0 0.0
2014-Jan-19 02:33N 47°40' W 122°23'0 0.0
2014-Jan-19 01:33N 47°40' W 122°23'0 0.0
2014-Jan-19 00:33N 47°40' W 122°23'0 0.0
2014-Jan-18 23:33N 47°40' W 122°23'0 0.0
2014-Jan-18 22:33N 47°40' W 122°23'0 0.0
2014-Jan-18 21:33N 47°40' W 122°23'0 0.0
2014-Jan-18 20:33N 47°40' W 122°23'0 0.0
2014-Jan-18 19:33N 47°40' W 122°23'0 0.0
2014-Jan-18 18:33N 47°40' W 122°23'0 0.0
2014-Jan-18 17:33N 47°40' W 122°23'0 0.0
2014-Jan-18 16:33N 47°40' W 122°23'0 0.0
2014-Jan-18 14:33N 47°40' W 122°23'0 0.0
2014-Jan-18 13:33N 47°40' W 122°23'0 0.0
2014-Jan-18 12:33N 47°40' W 122°23'0 0.0
2014-Jan-18 11:33N 47°40' W 122°23'0 0.0
2014-Jan-18 10:33N 47°40' W 122°23'0 0.0
2014-Jan-18 09:33N 47°40' W 122°23'0 0.0
2014-Jan-18 08:33N 47°40' W 122°23'0 0.0
2014-Jan-18 07:33N 47°40' W 122°23'0 0.0
2014-Jan-18 06:33N 47°40' W 122°23'0 0.0
2014-Jan-18 05:33N 47°40' W 122°23'0 0.0
2014-Jan-18 04:33N 47°40' W 122°23'0 0.0
2014-Jan-18 03:33N 47°40' W 122°23'0 0.0
2014-Jan-18 02:33N 47°40' W 122°23'0 0.0
2014-Jan-18 01:33N 47°40' W 122°23'0 0.0
2014-Jan-18 00:33N 47°40' W 122°23'0 0.0
2014-Jan-17 23:33N 47°40' W 122°23'0 0.0
2014-Jan-17 22:33N 47°40' W 122°23'0 0.0
2014-Jan-17 21:33N 47°40' W 122°23'0 0.0
2014-Jan-17 20:33N 47°40' W 122°23'0 0.0
2014-Jan-17 19:33N 47°40' W 122°23'0 0.0
2014-Jan-17 18:33N 47°40' W 122°23'0 0.0
2014-Jan-17 17:33N 47°40' W 122°23'0 0.0
2014-Jan-17 16:33N 47°40' W 122°23'0 0.0
2014-Jan-17 15:33N 47°40' W 122°23'0 0.0
2014-Jan-17 14:33N 47°40' W 122°23'0 0.0
2014-Jan-17 13:33N 47°40' W 122°23'0 0.0
2014-Jan-17 12:33N 47°40' W 122°23'0 0.0
2014-Jan-17 11:33N 47°40' W 122°23'0 0.0
2014-Jan-17 10:33N 47°40' W 122°23'0 0.0
2014-Jan-17 08:33N 47°40' W 122°23'0 0.0
2014-Jan-17 07:33N 47°40' W 122°23'0 0.0
2014-Jan-17 06:33N 47°40' W 122°23'0 0.0
2014-Jan-17 05:33N 47°40' W 122°23'0 0.0
2014-Jan-17 04:33N 47°40' W 122°23'0 0.0
2014-Jan-17 03:33N 47°40' W 122°23'0 0.0
2014-Jan-17 02:33N 47°40' W 122°23'0 0.0
2014-Jan-17 01:33N 47°40' W 122°23'0 0.0
2014-Jan-17 00:33N 47°40' W 122°23'0 0.0
2014-Jan-16 23:33N 47°40' W 122°23'0 0.0
2014-Jan-16 22:33N 47°40' W 122°23'0 0.0
2014-Jan-16 21:33N 47°40' W 122°23'0 0.0
2014-Jan-16 20:33N 47°40' W 122°23'0 0.0
2014-Jan-16 19:33N 47°40' W 122°23'0 0.0
2014-Jan-16 18:33N 47°40' W 122°23'0 0.0
2014-Jan-16 17:33N 47°40' W 122°23'0 0.0
2014-Jan-16 16:33N 47°40' W 122°23'0 0.0
2014-Jan-16 15:33N 47°40' W 122°23'0 0.0
2014-Jan-16 14:33N 47°40' W 122°23'  

Dump ship's entire track history

sailing weather and tide predictions

Misty Dawn — WDC8124 — position and weather